sensor_id;sensor_type;location;lat;lon;timestamp;temperature;humidity
44117;DHT22;29781;49.480;8.512;2023-11-22T00:00:10;6.00;99.90
44117;DHT22;29781;49.480;8.512;2023-11-22T00:02:36;5.90;99.90
44117;DHT22;29781;49.480;8.512;2023-11-22T00:05:03;6.00;99.90
44117;DHT22;29781;49.480;8.512;2023-11-22T00:07:32;6.00;99.90
44117;DHT22;29781;49.480;8.512;2023-11-22T00:09:58;5.90;99.90
44117;DHT22;29781;49.480;8.512;2023-11-22T00:12:28;5.90;99.90
44117;DHT22;29781;49.480;8.512;2023-11-22T00:15:02;5.80;99.90
44117;DHT22;29781;49.480;8.512;2023-11-22T00:17:28;5.80;99.90
44117;DHT22;29781;49.480;8.512;2023-11-22T00:19:54;5.80;99.90
44117;DHT22;29781;49.480;8.512;2023-11-22T00:22:20;5.70;99.90
44117;DHT22;29781;49.480;8.512;2023-11-22T00:24:46;5.60;99.90
44117;DHT22;29781;49.480;8.512;2023-11-22T00:27:15;5.50;99.90
44117;DHT22;29781;49.480;8.512;2023-11-22T00:29:43;5.50;99.90
44117;DHT22;29781;49.480;8.512;2023-11-22T00:32:13;5.50;99.90
44117;DHT22;29781;49.480;8.512;2023-11-22T00:34:39;5.40;99.90
44117;DHT22;29781;49.480;8.512;2023-11-22T00:37:07;5.50;99.90
44117;DHT22;29781;49.480;8.512;2023-11-22T00:39:36;5.40;99.90
44117;DHT22;29781;49.480;8.512;2023-11-22T00:42:03;5.40;99.90
44117;DHT22;29781;49.480;8.512;2023-11-22T00:44:31;5.30;99.90
44117;DHT22;29781;49.480;8.512;2023-11-22T00:46:57;5.40;99.90
44117;DHT22;29781;49.480;8.512;2023-11-22T00:49:23;5.40;99.90
44117;DHT22;29781;49.480;8.512;2023-11-22T00:51:49;5.40;99.90
44117;DHT22;29781;49.480;8.512;2023-11-22T00:54:18;5.40;99.90
44117;DHT22;29781;49.480;8.512;2023-11-22T00:56:46;5.40;99.90
44117;DHT22;29781;49.480;8.512;2023-11-22T00:59:11;5.30;99.90
44117;DHT22;29781;49.480;8.512;2023-11-22T01:01:37;5.30;99.90
44117;DHT22;29781;49.480;8.512;2023-11-22T01:04:03;5.40;99.90
44117;DHT22;29781;49.480;8.512;2023-11-22T01:06:34;5.40;99.90
44117;DHT22;29781;49.480;8.512;2023-11-22T01:09:07;5.40;99.90
44117;DHT22;29781;49.480;8.512;2023-11-22T01:11:35;5.50;99.90
44117;DHT22;29781;49.480;8.512;2023-11-22T01:14:00;5.40;99.90
44117;DHT22;29781;49.480;8.512;2023-11-22T01:16:26;5.40;99.90
44117;DHT22;29781;49.480;8.512;2023-11-22T01:18:58;5.40;99.90
44117;DHT22;29781;49.480;8.512;2023-11-22T01:21:24;5.30;99.90
44117;DHT22;29781;49.480;8.512;2023-11-22T01:23:50;5.20;99.90
44117;DHT22;29781;49.480;8.512;2023-11-22T01:26:16;5.20;99.90
44117;DHT22;29781;49.480;8.512;2023-11-22T01:28:48;5.20;99.90
44117;DHT22;29781;49.480;8.512;2023-11-22T01:31:17;5.20;99.90
44117;DHT22;29781;49.480;8.512;2023-11-22T01:33:48;5.20;99.90
44117;DHT22;29781;49.480;8.512;2023-11-22T01:36:14;5.30;99.90
44117;DHT22;29781;49.480;8.512;2023-11-22T01:38:41;5.20;99.90
44117;DHT22;29781;49.480;8.512;2023-11-22T01:41:09;5.50;99.90
44117;DHT22;29781;49.480;8.512;2023-11-22T01:43:35;5.40;99.90
44117;DHT22;29781;49.480;8.512;2023-11-22T01:46:04;5.50;99.90
44117;DHT22;29781;49.480;8.512;2023-11-22T01:48:29;5.60;99.90
44117;DHT22;29781;49.480;8.512;2023-11-22T01:50:57;5.70;99.90
44117;DHT22;29781;49.480;8.512;2023-11-22T01:53:24;5.60;99.90
44117;DHT22;29781;49.480;8.512;2023-11-22T01:55:52;5.40;99.90
44117;DHT22;29781;49.480;8.512;2023-11-22T01:58:18;5.40;99.90
44117;DHT22;29781;49.480;8.512;2023-11-22T02:00:51;5.30;99.90
44117;DHT22;29781;49.480;8.512;2023-11-22T02:03:20;5.30;99.90
44117;DHT22;29781;49.480;8.512;2023-11-22T02:05:46;5.40;99.90
44117;DHT22;29781;49.480;8.512;2023-11-22T02:08:12;5.50;99.90
44117;DHT22;29781;49.480;8.512;2023-11-22T02:10:39;5.20;99.90
44117;DHT22;29781;49.480;8.512;2023-11-22T02:13:08;5.00;99.90
44117;DHT22;29781;49.480;8.512;2023-11-22T02:15:34;5.00;99.90
44117;DHT22;29781;49.480;8.512;2023-11-22T02:18:00;5.00;99.90
44117;DHT22;29781;49.480;8.512;2023-11-22T02:20:26;4.80;99.90
44117;DHT22;29781;49.480;8.512;2023-11-22T02:22:52;4.80;99.90
44117;DHT22;29781;49.480;8.512;2023-11-22T02:25:18;4.80;99.90
44117;DHT22;29781;49.480;8.512;2023-11-22T02:27:46;4.90;99.90
44117;DHT22;29781;49.480;8.512;2023-11-22T02:30:12;4.70;99.90
44117;DHT22;29781;49.480;8.512;2023-11-22T02:32:38;4.80;99.90
44117;DHT22;29781;49.480;8.512;2023-11-22T02:35:05;4.90;99.90
44117;DHT22;29781;49.480;8.512;2023-11-22T02:37:34;4.80;99.90
44117;DHT22;29781;49.480;8.512;2023-11-22T02:42:34;4.50;99.90
44117;DHT22;29781;49.480;8.512;2023-11-22T02:44:59;4.40;99.90
44117;DHT22;29781;49.480;8.512;2023-11-22T02:47:28;4.40;99.90
44117;DHT22;29781;49.480;8.512;2023-11-22T02:49:53;4.40;99.90
44117;DHT22;29781;49.480;8.512;2023-11-22T02:52:20;4.40;99.90
44117;DHT22;29781;49.480;8.512;2023-11-22T02:54:47;4.50;99.90
44117;DHT22;29781;49.480;8.512;2023-11-22T02:57:16;4.50;99.90
44117;DHT22;29781;49.480;8.512;2023-11-22T02:59:44;4.40;99.90
44117;DHT22;29781;49.480;8.512;2023-11-22T03:02:10;4.50;99.90
44117;DHT22;29781;49.480;8.512;2023-11-22T03:04:39;4.60;99.90
44117;DHT22;29781;49.480;8.512;2023-11-22T03:07:05;4.70;99.90
44117;DHT22;29781;49.480;8.512;2023-11-22T03:09:33;4.60;99.90
44117;DHT22;29781;49.480;8.512;2023-11-22T03:12:02;4.50;99.90
44117;DHT22;29781;49.480;8.512;2023-11-22T03:14:28;4.50;99.90
44117;DHT22;29781;49.480;8.512;2023-11-22T03:16:54;4.50;99.90
44117;DHT22;29781;49.480;8.512;2023-11-22T03:19:20;4.40;99.90
44117;DHT22;29781;49.480;8.512;2023-11-22T03:21:49;4.40;99.90
44117;DHT22;29781;49.480;8.512;2023-11-22T03:24:15;4.50;99.90
44117;DHT22;29781;49.480;8.512;2023-11-22T03:26:41;4.30;99.90
44117;DHT22;29781;49.480;8.512;2023-11-22T03:29:07;4.40;99.90
44117;DHT22;29781;49.480;8.512;2023-11-22T03:31:33;4.30;99.90
44117;DHT22;29781;49.480;8.512;2023-11-22T03:34:05;4.50;99.90
44117;DHT22;29781;49.480;8.512;2023-11-22T03:36:33;4.40;99.90
44117;DHT22;29781;49.480;8.512;2023-11-22T03:39:01;4.30;99.90
44117;DHT22;29781;49.480;8.512;2023-11-22T03:41:29;4.20;99.90
44117;DHT22;29781;49.480;8.512;2023-11-22T03:43:54;4.30;99.90
44117;DHT22;29781;49.480;8.512;2023-11-22T03:46:24;4.30;99.90
44117;DHT22;29781;49.480;8.512;2023-11-22T03:48:53;4.30;99.90
44117;DHT22;29781;49.480;8.512;2023-11-22T03:51:21;4.30;99.90
44117;DHT22;29781;49.480;8.512;2023-11-22T03:53:50;4.30;99.90
44117;DHT22;29781;49.480;8.512;2023-11-22T03:56:23;4.10;99.90
44117;DHT22;29781;49.480;8.512;2023-11-22T03:58:48;4.10;99.90
44117;DHT22;29781;49.480;8.512;2023-11-22T04:01:16;4.30;99.90
44117;DHT22;29781;49.480;8.512;2023-11-22T04:03:53;4.20;99.90
44117;DHT22;29781;49.480;8.512;2023-11-22T04:06:19;4.20;99.90
44117;DHT22;29781;49.480;8.512;2023-11-22T04:08:52;4.20;99.90
44117;DHT22;29781;49.480;8.512;2023-11-22T04:11:21;4.10;99.90
44117;DHT22;29781;49.480;8.512;2023-11-22T04:13:48;4.10;99.90
44117;DHT22;29781;49.480;8.512;2023-11-22T04:16:13;3.80;99.90
44117;DHT22;29781;49.480;8.512;2023-11-22T04:18:40;3.70;99.90
44117;DHT22;29781;49.480;8.512;2023-11-22T04:21:09;3.60;99.90
44117;DHT22;29781;49.480;8.512;2023-11-22T04:23:35;3.60;99.90
44117;DHT22;29781;49.480;8.512;2023-11-22T04:26:09;3.60;99.90
44117;DHT22;29781;49.480;8.512;2023-11-22T04:28:36;3.60;99.90
44117;DHT22;29781;49.480;8.512;2023-11-22T04:31:02;3.90;99.90
44117;DHT22;29781;49.480;8.512;2023-11-22T04:33:29;3.80;99.90
44117;DHT22;29781;49.480;8.512;2023-11-22T04:35:55;3.70;99.90
44117;DHT22;29781;49.480;8.512;2023-11-22T04:38:23;3.60;99.90
44117;DHT22;29781;49.480;8.512;2023-11-22T04:40:54;3.60;99.90
44117;DHT22;29781;49.480;8.512;2023-11-22T04:43:31;3.50;99.90
44117;DHT22;29781;49.480;8.512;2023-11-22T04:45:57;3.40;99.90
44117;DHT22;29781;49.480;8.512;2023-11-22T04:48:23;3.20;99.90
44117;DHT22;29781;49.480;8.512;2023-11-22T04:50:49;3.30;99.90
44117;DHT22;29781;49.480;8.512;2023-11-22T04:53:20;3.20;99.90
44117;DHT22;29781;49.480;8.512;2023-11-22T04:55:46;3.30;99.90
44117;DHT22;29781;49.480;8.512;2023-11-22T04:58:11;3.00;99.90
44117;DHT22;29781;49.480;8.512;2023-11-22T05:00:37;3.10;99.90
44117;DHT22;29781;49.480;8.512;2023-11-22T05:03:03;2.90;99.90
44117;DHT22;29781;49.480;8.512;2023-11-22T05:05:29;2.90;99.90
44117;DHT22;29781;49.480;8.512;2023-11-22T05:07:57;2.90;99.90
44117;DHT22;29781;49.480;8.512;2023-11-22T05:10:25;3.00;99.90
44117;DHT22;29781;49.480;8.512;2023-11-22T05:12:50;3.10;99.90
44117;DHT22;29781;49.480;8.512;2023-11-22T05:15:19;3.00;99.90
44117;DHT22;29781;49.480;8.512;2023-11-22T05:17:44;3.10;99.90
44117;DHT22;29781;49.480;8.512;2023-11-22T05:20:13;3.00;99.90
44117;DHT22;29781;49.480;8.512;2023-11-22T05:22:38;3.10;99.90
44117;DHT22;29781;49.480;8.512;2023-11-22T05:25:07;3.20;99.90
44117;DHT22;29781;49.480;8.512;2023-11-22T05:27:33;3.20;99.90
44117;DHT22;29781;49.480;8.512;2023-11-22T05:29:58;3.30;99.90
44117;DHT22;29781;49.480;8.512;2023-11-22T05:32:24;3.20;99.90
44117;DHT22;29781;49.480;8.512;2023-11-22T05:34:50;3.20;99.90
44117;DHT22;29781;49.480;8.512;2023-11-22T05:37:15;3.10;99.90
44117;DHT22;29781;49.480;8.512;2023-11-22T05:39:41;3.10;99.90
44117;DHT22;29781;49.480;8.512;2023-11-22T05:42:10;2.90;99.90
44117;DHT22;29781;49.480;8.512;2023-11-22T05:44:37;2.80;99.90
44117;DHT22;29781;49.480;8.512;2023-11-22T05:47:03;2.90;99.90
44117;DHT22;29781;49.480;8.512;2023-11-22T05:49:29;2.80;99.90
44117;DHT22;29781;49.480;8.512;2023-11-22T05:51:54;2.80;99.90
44117;DHT22;29781;49.480;8.512;2023-11-22T05:54:20;2.70;99.90
44117;DHT22;29781;49.480;8.512;2023-11-22T05:56:48;2.70;99.90
44117;DHT22;29781;49.480;8.512;2023-11-22T05:59:14;2.80;99.90
44117;DHT22;29781;49.480;8.512;2023-11-22T06:01:43;2.70;99.90
44117;DHT22;29781;49.480;8.512;2023-11-22T06:04:09;2.60;99.90
44117;DHT22;29781;49.480;8.512;2023-11-22T06:06:35;2.50;99.90
44117;DHT22;29781;49.480;8.512;2023-11-22T06:09:02;2.40;99.90
44117;DHT22;29781;49.480;8.512;2023-11-22T06:11:28;2.30;99.90
44117;DHT22;29781;49.480;8.512;2023-11-22T06:13:53;2.20;99.90
44117;DHT22;29781;49.480;8.512;2023-11-22T06:16:25;2.30;99.90
44117;DHT22;29781;49.480;8.512;2023-11-22T06:18:51;2.20;99.90
44117;DHT22;29781;49.480;8.512;2023-11-22T06:21:17;2.20;99.90
44117;DHT22;29781;49.480;8.512;2023-11-22T06:23:42;2.20;99.90
44117;DHT22;29781;49.480;8.512;2023-11-22T06:26:08;2.20;99.90
44117;DHT22;29781;49.480;8.512;2023-11-22T06:28:34;2.20;99.90
44117;DHT22;29781;49.480;8.512;2023-11-22T06:31:00;2.10;99.90
44117;DHT22;29781;49.480;8.512;2023-11-22T06:33:26;2.10;99.90
44117;DHT22;29781;49.480;8.512;2023-11-22T06:35:52;2.10;99.90
44117;DHT22;29781;49.480;8.512;2023-11-22T06:38:20;2.00;99.90
44117;DHT22;29781;49.480;8.512;2023-11-22T06:40:52;2.00;99.90
44117;DHT22;29781;49.480;8.512;2023-11-22T06:43:18;1.90;99.90
44117;DHT22;29781;49.480;8.512;2023-11-22T06:45:48;1.80;99.90
44117;DHT22;29781;49.480;8.512;2023-11-22T06:48:14;1.80;99.90
44117;DHT22;29781;49.480;8.512;2023-11-22T06:50:43;1.80;99.90
44117;DHT22;29781;49.480;8.512;2023-11-22T06:53:10;1.80;99.90
44117;DHT22;29781;49.480;8.512;2023-11-22T06:55:37;1.80;99.90
44117;DHT22;29781;49.480;8.512;2023-11-22T06:58:04;1.80;99.90
44117;DHT22;29781;49.480;8.512;2023-11-22T07:00:36;1.80;99.90
44117;DHT22;29781;49.480;8.512;2023-11-22T07:03:02;1.70;99.90
44117;DHT22;29781;49.480;8.512;2023-11-22T07:05:28;1.70;99.90
44117;DHT22;29781;49.480;8.512;2023-11-22T07:07:55;1.60;99.90
44117;DHT22;29781;49.480;8.512;2023-11-22T07:10:23;1.50;99.90
44117;DHT22;29781;49.480;8.512;2023-11-22T07:12:49;1.50;99.90
44117;DHT22;29781;49.480;8.512;2023-11-22T07:15:16;1.50;99.90
44117;DHT22;29781;49.480;8.512;2023-11-22T07:17:42;1.50;99.90
44117;DHT22;29781;49.480;8.512;2023-11-22T07:20:08;1.50;99.90
44117;DHT22;29781;49.480;8.512;2023-11-22T07:22:38;1.70;99.90
44117;DHT22;29781;49.480;8.512;2023-11-22T07:25:05;1.70;99.90
44117;DHT22;29781;49.480;8.512;2023-11-22T07:27:40;1.80;99.90
44117;DHT22;29781;49.480;8.512;2023-11-22T07:30:09;1.90;99.90
44117;DHT22;29781;49.480;8.512;2023-11-22T07:32:36;1.90;99.90
44117;DHT22;29781;49.480;8.512;2023-11-22T07:35:02;2.00;99.90
44117;DHT22;29781;49.480;8.512;2023-11-22T07:37:29;2.00;99.90
44117;DHT22;29781;49.480;8.512;2023-11-22T07:39:57;2.00;99.90
44117;DHT22;29781;49.480;8.512;2023-11-22T07:42:23;1.90;99.90
44117;DHT22;29781;49.480;8.512;2023-11-22T07:44:49;1.90;99.90
44117;DHT22;29781;49.480;8.512;2023-11-22T07:47:22;2.00;99.90
44117;DHT22;29781;49.480;8.512;2023-11-22T07:49:52;2.00;99.90
44117;DHT22;29781;49.480;8.512;2023-11-22T07:52:24;1.90;99.90
44117;DHT22;29781;49.480;8.512;2023-11-22T07:54:57;1.90;99.90
44117;DHT22;29781;49.480;8.512;2023-11-22T07:57:23;2.10;99.90
44117;DHT22;29781;49.480;8.512;2023-11-22T07:59:49;2.20;99.90
44117;DHT22;29781;49.480;8.512;2023-11-22T08:02:21;2.10;99.90
44117;DHT22;29781;49.480;8.512;2023-11-22T08:04:47;2.00;99.90
44117;DHT22;29781;49.480;8.512;2023-11-22T08:07:13;1.90;99.90
44117;DHT22;29781;49.480;8.512;2023-11-22T08:09:44;2.10;99.90
44117;DHT22;29781;49.480;8.512;2023-11-22T08:12:10;2.20;99.90
44117;DHT22;29781;49.480;8.512;2023-11-22T08:14:39;2.20;99.90
44117;DHT22;29781;49.480;8.512;2023-11-22T08:17:06;2.30;99.90
44117;DHT22;29781;49.480;8.512;2023-11-22T08:19:32;2.40;99.90
44117;DHT22;29781;49.480;8.512;2023-11-22T08:22:02;2.40;99.90
44117;DHT22;29781;49.480;8.512;2023-11-22T08:24:30;2.60;99.90
44117;DHT22;29781;49.480;8.512;2023-11-22T08:26:59;2.50;99.90
44117;DHT22;29781;49.480;8.512;2023-11-22T08:29:25;2.40;99.90
44117;DHT22;29781;49.480;8.512;2023-11-22T08:31:51;2.50;99.90
44117;DHT22;29781;49.480;8.512;2023-11-22T08:34:17;2.60;99.90
44117;DHT22;29781;49.480;8.512;2023-11-22T08:36:43;2.80;99.90
44117;DHT22;29781;49.480;8.512;2023-11-22T08:39:09;2.70;99.90
44117;DHT22;29781;49.480;8.512;2023-11-22T08:41:35;2.60;99.90
44117;DHT22;29781;49.480;8.512;2023-11-22T08:44:04;2.60;99.90
44117;DHT22;29781;49.480;8.512;2023-11-22T08:46:32;2.60;99.90
44117;DHT22;29781;49.480;8.512;2023-11-22T08:49:00;2.40;99.90
44117;DHT22;29781;49.480;8.512;2023-11-22T08:51:28;2.40;99.90
44117;DHT22;29781;49.480;8.512;2023-11-22T08:53:53;2.40;99.90
44117;DHT22;29781;49.480;8.512;2023-11-22T08:56:20;2.40;99.90
44117;DHT22;29781;49.480;8.512;2023-11-22T08:58:46;2.60;99.90
44117;DHT22;29781;49.480;8.512;2023-11-22T09:01:12;2.60;99.90
44117;DHT22;29781;49.480;8.512;2023-11-22T09:03:43;2.80;99.90
44117;DHT22;29781;49.480;8.512;2023-11-22T09:06:12;2.90;99.90
44117;DHT22;29781;49.480;8.512;2023-11-22T09:08:38;2.90;99.90
44117;DHT22;29781;49.480;8.512;2023-11-22T09:11:04;3.20;99.90
44117;DHT22;29781;49.480;8.512;2023-11-22T09:13:34;3.30;99.90
44117;DHT22;29781;49.480;8.512;2023-11-22T09:16:00;3.50;99.90
44117;DHT22;29781;49.480;8.512;2023-11-22T09:18:28;3.20;99.90
44117;DHT22;29781;49.480;8.512;2023-11-22T09:20:54;3.00;99.90
44117;DHT22;29781;49.480;8.512;2023-11-22T09:23:20;3.00;99.90
44117;DHT22;29781;49.480;8.512;2023-11-22T09:25:46;3.10;99.90
44117;DHT22;29781;49.480;8.512;2023-11-22T09:28:21;3.00;99.90
44117;DHT22;29781;49.480;8.512;2023-11-22T09:30:52;3.00;99.90
44117;DHT22;29781;49.480;8.512;2023-11-22T09:33:18;3.30;99.90
44117;DHT22;29781;49.480;8.512;2023-11-22T09:35:46;3.20;99.90
44117;DHT22;29781;49.480;8.512;2023-11-22T09:38:13;3.30;99.90
44117;DHT22;29781;49.480;8.512;2023-11-22T09:40:47;2.90;99.90
44117;DHT22;29781;49.480;8.512;2023-11-22T09:43:14;2.70;99.90
44117;DHT22;29781;49.480;8.512;2023-11-22T09:45:44;2.80;99.90
44117;DHT22;29781;49.480;8.512;2023-11-22T09:48:18;2.80;99.90
44117;DHT22;29781;49.480;8.512;2023-11-22T09:51:15;2.80;99.90
44117;DHT22;29781;49.480;8.512;2023-11-22T09:53:47;2.80;99.90
44117;DHT22;29781;49.480;8.512;2023-11-22T09:56:16;3.00;99.90
44117;DHT22;29781;49.480;8.512;2023-11-22T09:58:45;3.00;99.90
44117;DHT22;29781;49.480;8.512;2023-11-22T10:01:11;3.00;99.90
44117;DHT22;29781;49.480;8.512;2023-11-22T10:03:39;2.90;99.90
44117;DHT22;29781;49.480;8.512;2023-11-22T10:06:08;2.90;99.90
44117;DHT22;29781;49.480;8.512;2023-11-22T10:08:34;3.00;99.90
44117;DHT22;29781;49.480;8.512;2023-11-22T10:11:01;3.10;99.90
44117;DHT22;29781;49.480;8.512;2023-11-22T10:13:27;3.00;99.90
44117;DHT22;29781;49.480;8.512;2023-11-22T10:15:53;3.10;99.90
44117;DHT22;29781;49.480;8.512;2023-11-22T10:18:22;3.30;99.90
44117;DHT22;29781;49.480;8.512;2023-11-22T10:20:57;3.50;99.90
44117;DHT22;29781;49.480;8.512;2023-11-22T10:23:29;3.60;99.90
44117;DHT22;29781;49.480;8.512;2023-11-22T10:25:55;3.60;99.90
44117;DHT22;29781;49.480;8.512;2023-11-22T10:28:24;3.80;99.90
44117;DHT22;29781;49.480;8.512;2023-11-22T10:30:52;3.50;99.90
44117;DHT22;29781;49.480;8.512;2023-11-22T10:33:18;3.40;99.90
44117;DHT22;29781;49.480;8.512;2023-11-22T10:35:49;3.30;99.90
44117;DHT22;29781;49.480;8.512;2023-11-22T10:38:19;3.30;99.90
44117;DHT22;29781;49.480;8.512;2023-11-22T10:40:46;3.30;99.90
44117;DHT22;29781;49.480;8.512;2023-11-22T10:43:16;3.50;99.90
44117;DHT22;29781;49.480;8.512;2023-11-22T10:45:44;3.50;99.90
44117;DHT22;29781;49.480;8.512;2023-11-22T10:48:15;3.70;99.90
44117;DHT22;29781;49.480;8.512;2023-11-22T10:50:42;3.90;99.90
44117;DHT22;29781;49.480;8.512;2023-11-22T10:53:11;3.80;99.90
44117;DHT22;29781;49.480;8.512;2023-11-22T10:55:44;3.50;99.90
44117;DHT22;29781;49.480;8.512;2023-11-22T10:58:11;3.50;99.90
44117;DHT22;29781;49.480;8.512;2023-11-22T11:00:46;3.50;99.90
44117;DHT22;29781;49.480;8.512;2023-11-22T11:03:18;3.50;99.90
44117;DHT22;29781;49.480;8.512;2023-11-22T11:06:02;3.60;99.90
44117;DHT22;29781;49.480;8.512;2023-11-22T11:08:31;3.50;99.90
44117;DHT22;29781;49.480;8.512;2023-11-22T11:10:58;3.40;99.90
44117;DHT22;29781;49.480;8.512;2023-11-22T11:13:25;3.60;99.90
44117;DHT22;29781;49.480;8.512;2023-11-22T11:15:53;3.90;99.90
44117;DHT22;29781;49.480;8.512;2023-11-22T11:18:20;4.30;99.90
44117;DHT22;29781;49.480;8.512;2023-11-22T11:23:30;4.60;99.90
44117;DHT22;29781;49.480;8.512;2023-11-22T11:25:58;4.10;99.90
44117;DHT22;29781;49.480;8.512;2023-11-22T11:28:25;3.70;99.90
44117;DHT22;29781;49.480;8.512;2023-11-22T11:30:55;3.60;99.90
44117;DHT22;29781;49.480;8.512;2023-11-22T11:33:33;3.50;99.90
44117;DHT22;29781;49.480;8.512;2023-11-22T11:36:02;4.00;99.90
44117;DHT22;29781;49.480;8.512;2023-11-22T11:38:36;4.30;99.90
44117;DHT22;29781;49.480;8.512;2023-11-22T11:41:10;4.50;99.90
44117;DHT22;29781;49.480;8.512;2023-11-22T11:43:45;4.50;99.90
44117;DHT22;29781;49.480;8.512;2023-11-22T11:46:12;4.80;99.90
44117;DHT22;29781;49.480;8.512;2023-11-22T11:48:41;4.90;99.90
44117;DHT22;29781;49.480;8.512;2023-11-22T11:51:14;4.80;99.90
44117;DHT22;29781;49.480;8.512;2023-11-22T11:53:45;4.40;99.90
44117;DHT22;29781;49.480;8.512;2023-11-22T11:56:14;4.20;99.90
44117;DHT22;29781;49.480;8.512;2023-11-22T11:58:44;4.40;99.90
44117;DHT22;29781;49.480;8.512;2023-11-22T12:01:13;4.70;99.90
44117;DHT22;29781;49.480;8.512;2023-11-22T12:03:40;4.70;99.90
44117;DHT22;29781;49.480;8.512;2023-11-22T12:06:06;4.70;99.90
44117;DHT22;29781;49.480;8.512;2023-11-22T12:08:33;4.80;99.90
44117;DHT22;29781;49.480;8.512;2023-11-22T12:11:05;5.00;99.90
44117;DHT22;29781;49.480;8.512;2023-11-22T12:13:35;5.10;99.90
44117;DHT22;29781;49.480;8.512;2023-11-22T12:16:05;4.80;99.90
44117;DHT22;29781;49.480;8.512;2023-11-22T12:18:47;5.00;99.90
44117;DHT22;29781;49.480;8.512;2023-11-22T12:21:13;4.80;99.90
44117;DHT22;29781;49.480;8.512;2023-11-22T12:23:42;4.90;99.90
44117;DHT22;29781;49.480;8.512;2023-11-22T12:26:15;4.90;99.90
44117;DHT22;29781;49.480;8.512;2023-11-22T12:28:45;5.20;99.90
44117;DHT22;29781;49.480;8.512;2023-11-22T12:31:13;5.30;99.90
44117;DHT22;29781;49.480;8.512;2023-11-22T12:33:43;4.90;99.90
44117;DHT22;29781;49.480;8.512;2023-11-22T12:36:11;4.30;99.90
44117;DHT22;29781;49.480;8.512;2023-11-22T12:38:42;4.00;99.90
44117;DHT22;29781;49.480;8.512;2023-11-22T12:41:08;3.90;99.90
44117;DHT22;29781;49.480;8.512;2023-11-22T12:43:37;3.90;99.90
44117;DHT22;29781;49.480;8.512;2023-11-22T12:46:06;4.00;99.90
44117;DHT22;29781;49.480;8.512;2023-11-22T12:48:33;4.20;99.90
44117;DHT22;29781;49.480;8.512;2023-11-22T12:51:02;4.10;99.90
44117;DHT22;29781;49.480;8.512;2023-11-22T12:53:30;4.00;99.90
44117;DHT22;29781;49.480;8.512;2023-11-22T12:55:59;3.90;99.90
44117;DHT22;29781;49.480;8.512;2023-11-22T12:58:28;3.80;99.90
44117;DHT22;29781;49.480;8.512;2023-11-22T13:00:57;3.80;99.90
44117;DHT22;29781;49.480;8.512;2023-11-22T13:03:32;3.80;99.90
44117;DHT22;29781;49.480;8.512;2023-11-22T13:06:00;3.80;99.90
44117;DHT22;29781;49.480;8.512;2023-11-22T13:08:29;3.90;99.90
44117;DHT22;29781;49.480;8.512;2023-11-22T13:10:55;3.90;99.90
44117;DHT22;29781;49.480;8.512;2023-11-22T13:13:23;3.90;99.90
44117;DHT22;29781;49.480;8.512;2023-11-22T13:15:52;4.00;99.90
44117;DHT22;29781;49.480;8.512;2023-11-22T13:18:18;4.00;99.90
44117;DHT22;29781;49.480;8.512;2023-11-22T13:20:44;4.00;99.90
44117;DHT22;29781;49.480;8.512;2023-11-22T13:23:13;4.10;99.90
44117;DHT22;29781;49.480;8.512;2023-11-22T13:25:40;4.40;99.90
44117;DHT22;29781;49.480;8.512;2023-11-22T13:28:09;4.40;99.90
44117;DHT22;29781;49.480;8.512;2023-11-22T13:30:37;4.30;99.90
44117;DHT22;29781;49.480;8.512;2023-11-22T13:33:05;4.60;99.90
44117;DHT22;29781;49.480;8.512;2023-11-22T13:35:31;4.90;99.90
44117;DHT22;29781;49.480;8.512;2023-11-22T13:38:02;5.20;99.90
44117;DHT22;29781;49.480;8.512;2023-11-22T13:40:28;5.30;99.90
44117;DHT22;29781;49.480;8.512;2023-11-22T13:42:58;4.90;99.90
44117;DHT22;29781;49.480;8.512;2023-11-22T13:45:24;5.00;99.90
44117;DHT22;29781;49.480;8.512;2023-11-22T13:47:54;5.20;99.90
44117;DHT22;29781;49.480;8.512;2023-11-22T13:50:26;5.40;99.90
44117;DHT22;29781;49.480;8.512;2023-11-22T13:52:56;5.40;99.90
44117;DHT22;29781;49.480;8.512;2023-11-22T13:55:23;5.40;99.90
44117;DHT22;29781;49.480;8.512;2023-11-22T13:57:50;5.20;99.90
44117;DHT22;29781;49.480;8.512;2023-11-22T14:00:23;5.30;99.90
44117;DHT22;29781;49.480;8.512;2023-11-22T14:02:51;5.00;99.90
44117;DHT22;29781;49.480;8.512;2023-11-22T14:05:18;4.70;99.90
44117;DHT22;29781;49.480;8.512;2023-11-22T14:07:45;4.60;99.90
44117;DHT22;29781;49.480;8.512;2023-11-22T14:10:11;4.40;99.90
44117;DHT22;29781;49.480;8.512;2023-11-22T14:12:44;4.60;99.90
44117;DHT22;29781;49.480;8.512;2023-11-22T14:15:11;4.50;99.90
44117;DHT22;29781;49.480;8.512;2023-11-22T14:17:39;4.20;99.90
44117;DHT22;29781;49.480;8.512;2023-11-22T14:20:11;4.40;99.90
44117;DHT22;29781;49.480;8.512;2023-11-22T14:22:40;4.70;99.90
44117;DHT22;29781;49.480;8.512;2023-11-22T14:25:08;4.70;99.90
44117;DHT22;29781;49.480;8.512;2023-11-22T14:27:41;4.70;99.90
44117;DHT22;29781;49.480;8.512;2023-11-22T14:30:15;4.40;99.90
44117;DHT22;29781;49.480;8.512;2023-11-22T14:32:44;4.20;99.90
44117;DHT22;29781;49.480;8.512;2023-11-22T14:35:10;4.30;99.90
44117;DHT22;29781;49.480;8.512;2023-11-22T14:37:37;4.40;99.90
44117;DHT22;29781;49.480;8.512;2023-11-22T14:40:11;4.30;99.90
44117;DHT22;29781;49.480;8.512;2023-11-22T14:42:42;4.20;99.90
44117;DHT22;29781;49.480;8.512;2023-11-22T14:45:09;4.10;99.90
44117;DHT22;29781;49.480;8.512;2023-11-22T14:47:35;4.00;99.90
44117;DHT22;29781;49.480;8.512;2023-11-22T14:50:06;4.10;99.90
44117;DHT22;29781;49.480;8.512;2023-11-22T14:52:33;4.10;99.90
44117;DHT22;29781;49.480;8.512;2023-11-22T14:55:01;4.10;99.90
44117;DHT22;29781;49.480;8.512;2023-11-22T14:57:28;4.10;99.90
44117;DHT22;29781;49.480;8.512;2023-11-22T14:59:54;4.00;99.90
44117;DHT22;29781;49.480;8.512;2023-11-22T15:02:20;3.90;99.90
44117;DHT22;29781;49.480;8.512;2023-11-22T15:04:46;3.80;99.90
44117;DHT22;29781;49.480;8.512;2023-11-22T15:07:12;3.80;99.90
44117;DHT22;29781;49.480;8.512;2023-11-22T15:09:41;3.80;99.90
44117;DHT22;29781;49.480;8.512;2023-11-22T15:12:07;3.90;99.90
44117;DHT22;29781;49.480;8.512;2023-11-22T15:14:33;4.10;99.90
44117;DHT22;29781;49.480;8.512;2023-11-22T15:17:00;4.30;99.90
44117;DHT22;29781;49.480;8.512;2023-11-22T15:19:30;4.30;99.90
44117;DHT22;29781;49.480;8.512;2023-11-22T15:21:57;4.10;99.90
44117;DHT22;29781;49.480;8.512;2023-11-22T15:24:23;4.00;99.90
44117;DHT22;29781;49.480;8.512;2023-11-22T15:26:49;3.90;99.90
44117;DHT22;29781;49.480;8.512;2023-11-22T15:29:18;3.90;99.90
44117;DHT22;29781;49.480;8.512;2023-11-22T15:31:44;4.00;99.90
44117;DHT22;29781;49.480;8.512;2023-11-22T15:34:10;4.00;99.90
44117;DHT22;29781;49.480;8.512;2023-11-22T15:36:37;4.20;99.90
44117;DHT22;29781;49.480;8.512;2023-11-22T15:39:06;4.00;99.90
44117;DHT22;29781;49.480;8.512;2023-11-22T15:41:38;3.80;99.90
44117;DHT22;29781;49.480;8.512;2023-11-22T15:44:07;3.80;99.90
44117;DHT22;29781;49.480;8.512;2023-11-22T15:46:32;3.70;99.90
44117;DHT22;29781;49.480;8.512;2023-11-22T15:48:59;3.80;99.90
44117;DHT22;29781;49.480;8.512;2023-11-22T15:51:25;3.80;99.90
44117;DHT22;29781;49.480;8.512;2023-11-22T15:53:52;4.10;99.90